sensor_id;sensor_type;location;lat;lon;timestamp;P1;durP1;ratioP1;P2;durP2;ratioP2
13419;SDS011;6781;58.440;15.470;2022-08-11T00:00:11;2.58;;;2.10;;
13419;SDS011;6781;58.440;15.470;2022-08-11T00:02:42;2.50;;;2.30;;
13419;SDS011;6781;58.440;15.470;2022-08-11T00:05:15;2.60;;;2.40;;
13419;SDS011;6781;58.440;15.470;2022-08-11T00:07:55;2.05;;;1.95;;
13419;SDS011;6781;58.440;15.470;2022-08-11T00:10:29;2.45;;;2.25;;
13419;SDS011;6781;58.440;15.470;2022-08-11T00:12:57;2.38;;;2.10;;
13419;SDS011;6781;58.440;15.470;2022-08-11T00:15:37;2.72;;;1.92;;
13419;SDS011;6781;58.440;15.470;2022-08-11T00:18:10;2.17;;;2.05;;
13419;SDS011;6781;58.440;15.470;2022-08-11T00:20:40;2.42;;;2.22;;
13419;SDS011;6781;58.440;15.470;2022-08-11T00:23:17;2.33;;;2.05;;
13419;SDS011;6781;58.440;15.470;2022-08-11T00:25:48;2.58;;;2.38;;
13419;SDS011;6781;58.440;15.470;2022-08-11T00:28:32;2.28;;;2.17;;
13419;SDS011;6781;58.440;15.470;2022-08-11T00:31:01;2.35;;;1.95;;
13419;SDS011;6781;58.440;15.470;2022-08-11T00:33:38;2.88;;;2.22;;
13419;SDS011;6781;58.440;15.470;2022-08-11T00:36:08;2.35;;;2.15;;
13419;SDS011;6781;58.440;15.470;2022-08-11T00:38:42;2.75;;;2.03;;
13419;SDS011;6781;58.440;15.470;2022-08-11T00:41:19;2.20;;;1.98;;
13419;SDS011;6781;58.440;15.470;2022-08-11T00:44:11;2.63;;;1.95;;
13419;SDS011;6781;58.440;15.470;2022-08-11T00:46:52;2.42;;;2.30;;
13419;SDS011;6781;58.440;15.470;2022-08-11T00:49:34;2.25;;;1.92;;
13419;SDS011;6781;58.440;15.470;2022-08-11T00:52:47;2.50;;;2.30;;
13419;SDS011;6781;58.440;15.470;2022-08-11T01:01:56;2.30;;;2.10;;
13419;SDS011;6781;58.440;15.470;2022-08-11T01:10:47;2.65;;;2.17;;
13419;SDS011;6781;58.440;15.470;2022-08-11T01:13:35;3.08;;;2.10;;
13419;SDS011;6781;58.440;15.470;2022-08-11T01:16:32;2.50;;;2.28;;
13419;SDS011;6781;58.440;15.470;2022-08-11T01:19:49;2.17;;;2.08;;
13419;SDS011;6781;58.440;15.470;2022-08-11T01:26:28;2.55;;;2.35;;
13419;SDS011;6781;58.440;15.470;2022-08-11T01:29:35;2.75;;;2.30;;
13419;SDS011;6781;58.440;15.470;2022-08-11T01:36:00;2.38;;;1.98;;
13419;SDS011;6781;58.440;15.470;2022-08-11T01:38:59;2.80;;;2.00;;
13419;SDS011;6781;58.440;15.470;2022-08-11T01:42:04;2.28;;;2.13;;
13419;SDS011;6781;58.440;15.470;2022-08-11T01:45:26;3.25;;;2.42;;
13419;SDS011;6781;58.440;15.470;2022-08-11T01:48:03;2.55;;;2.30;;
13419;SDS011;6781;58.440;15.470;2022-08-11T01:53:59;3.78;;;2.67;;
13419;SDS011;6781;58.440;15.470;2022-08-11T01:59:27;3.35;;;2.25;;
13419;SDS011;6781;58.440;15.470;2022-08-11T02:08:00;2.80;;;2.60;;
13419;SDS011;6781;58.440;15.470;2022-08-11T02:10:34;2.55;;;2.20;;
13419;SDS011;6781;58.440;15.470;2022-08-11T02:13:31;3.20;;;2.33;;
13419;SDS011;6781;58.440;15.470;2022-08-11T02:16:12;2.65;;;2.28;;
13419;SDS011;6781;58.440;15.470;2022-08-11T02:19:11;2.95;;;2.50;;
13419;SDS011;6781;58.440;15.470;2022-08-11T02:28:24;2.60;;;2.40;;
13419;SDS011;6781;58.440;15.470;2022-08-11T02:31:06;4.80;;;2.63;;
13419;SDS011;6781;58.440;15.470;2022-08-11T02:34:08;2.88;;;2.30;;
13419;SDS011;6781;58.440;15.470;2022-08-11T02:37:18;2.75;;;2.55;;
13419;SDS011;6781;58.440;15.470;2022-08-11T02:40:26;2.80;;;2.20;;
13419;SDS011;6781;58.440;15.470;2022-08-11T02:43:38;2.95;;;2.45;;
13419;SDS011;6781;58.440;15.470;2022-08-11T02:46:20;3.10;;;2.60;;
13419;SDS011;6781;58.440;15.470;2022-08-11T02:52:34;2.25;;;2.15;;
13419;SDS011;6781;58.440;15.470;2022-08-11T02:55:29;2.50;;;2.30;;
13419;SDS011;6781;58.440;15.470;2022-08-11T02:58:15;2.45;;;2.22;;
13419;SDS011;6781;58.440;15.470;2022-08-11T03:01:05;3.10;;;2.60;;
13419;SDS011;6781;58.440;15.470;2022-08-11T03:03:46;2.50;;;2.30;;
13419;SDS011;6781;58.440;15.470;2022-08-11T03:07:28;4.55;;;2.58;;
13419;SDS011;6781;58.440;15.470;2022-08-11T03:10:08;2.95;;;2.70;;
13419;SDS011;6781;58.440;15.470;2022-08-11T03:12:49;2.75;;;2.55;;
13419;SDS011;6781;58.440;15.470;2022-08-11T03:15:42;2.65;;;2.40;;
13419;SDS011;6781;58.440;15.470;2022-08-11T03:18:36;3.45;;;2.47;;
13419;SDS011;6781;58.440;15.470;2022-08-11T03:21:23;3.70;;;2.58;;
13419;SDS011;6781;58.440;15.470;2022-08-11T03:26:58;2.90;;;2.58;;
13419;SDS011;6781;58.440;15.470;2022-08-11T03:29:36;3.97;;;2.70;;
13419;SDS011;6781;58.440;15.470;2022-08-11T03:32:25;3.80;;;2.50;;
13419;SDS011;6781;58.440;15.470;2022-08-11T03:34:59;2.67;;;2.47;;
13419;SDS011;6781;58.440;15.470;2022-08-11T03:37:37;2.70;;;2.50;;
13419;SDS011;6781;58.440;15.470;2022-08-11T03:43:44;2.25;;;2.05;;
13419;SDS011;6781;58.440;15.470;2022-08-11T03:46:35;2.90;;;2.60;;
13419;SDS011;6781;58.440;15.470;2022-08-11T03:49:43;3.05;;;2.75;;
13419;SDS011;6781;58.440;15.470;2022-08-11T03:52:36;2.90;;;2.70;;
13419;SDS011;6781;58.440;15.470;2022-08-11T03:55:22;3.45;;;2.63;;
13419;SDS011;6781;58.440;15.470;2022-08-11T03:58:25;2.75;;;2.55;;
13419;SDS011;6781;58.440;15.470;2022-08-11T04:14:33;2.97;;;2.70;;
13419;SDS011;6781;58.440;15.470;2022-08-11T04:18:04;3.33;;;2.80;;
13419;SDS011;6781;58.440;15.470;2022-08-11T04:21:19;5.15;;;2.58;;
13419;SDS011;6781;58.440;15.470;2022-08-11T04:24:23;3.65;;;2.80;;
13419;SDS011;6781;58.440;15.470;2022-08-11T04:27:20;3.28;;;2.95;;
13419;SDS011;6781;58.440;15.470;2022-08-11T04:30:14;4.55;;;2.80;;
13419;SDS011;6781;58.440;15.470;2022-08-11T04:33:09;4.72;;;2.85;;
13419;SDS011;6781;58.440;15.470;2022-08-11T04:36:04;2.60;;;2.40;;
13419;SDS011;6781;58.440;15.470;2022-08-11T04:39:09;3.38;;;2.80;;
13419;SDS011;6781;58.440;15.470;2022-08-11T04:42:05;3.50;;;2.83;;
13419;SDS011;6781;58.440;15.470;2022-08-11T04:52:07;5.05;;;3.08;;
13419;SDS011;6781;58.440;15.470;2022-08-11T04:58:51;3.30;;;2.53;;
13419;SDS011;6781;58.440;15.470;2022-08-11T05:04:49;3.63;;;2.42;;
13419;SDS011;6781;58.440;15.470;2022-08-11T05:14:00;5.03;;;2.78;;
13419;SDS011;6781;58.440;15.470;2022-08-11T05:17:03;2.75;;;2.55;;
13419;SDS011;6781;58.440;15.470;2022-08-11T05:19:53;3.97;;;2.58;;
13419;SDS011;6781;58.440;15.470;2022-08-11T05:22:37;5.20;;;2.58;;
13419;SDS011;6781;58.440;15.470;2022-08-11T05:25:28;4.07;;;2.63;;
13419;SDS011;6781;58.440;15.470;2022-08-11T05:28:12;4.68;;;2.65;;
13419;SDS011;6781;58.440;15.470;2022-08-11T05:31:07;3.72;;;2.25;;
13419;SDS011;6781;58.440;15.470;2022-08-11T05:33:55;3.33;;;2.53;;
13419;SDS011;6781;58.440;15.470;2022-08-11T05:36:44;2.78;;;2.47;;
13419;SDS011;6781;58.440;15.470;2022-08-11T05:39:14;2.92;;;2.20;;
13419;SDS011;6781;58.440;15.470;2022-08-11T05:42:02;3.00;;;2.45;;
13419;SDS011;6781;58.440;15.470;2022-08-11T05:44:49;4.50;;;2.20;;
13419;SDS011;6781;58.440;15.470;2022-08-11T05:47:36;2.92;;;2.28;;
13419;SDS011;6781;58.440;15.470;2022-08-11T05:50:21;2.28;;;2.08;;
13419;SDS011;6781;58.440;15.470;2022-08-11T05:53:07;2.80;;;1.98;;
13419;SDS011;6781;58.440;15.470;2022-08-11T05:55:54;3.72;;;2.35;;
13419;SDS011;6781;58.440;15.470;2022-08-11T05:58:43;5.45;;;2.03;;
13419;SDS011;6781;58.440;15.470;2022-08-11T06:01:13;3.85;;;1.88;;
13419;SDS011;6781;58.440;15.470;2022-08-11T06:03:48;2.83;;;2.20;;
13419;SDS011;6781;58.440;15.470;2022-08-11T06:06:34;1.70;;;1.60;;
13419;SDS011;6781;58.440;15.470;2022-08-11T06:09:04;4.30;;;2.22;;
13419;SDS011;6781;58.440;15.470;2022-08-11T06:11:36;3.03;;;2.13;;
13419;SDS011;6781;58.440;15.470;2022-08-11T06:14:06;4.20;;;1.98;;
13419;SDS011;6781;58.440;15.470;2022-08-11T06:16:35;4.05;;;2.10;;
13419;SDS011;6781;58.440;15.470;2022-08-11T06:19:03;9.38;;;2.63;;
13419;SDS011;6781;58.440;15.470;2022-08-11T06:21:31;2.60;;;1.98;;
13419;SDS011;6781;58.440;15.470;2022-08-11T06:24:00;5.07;;;2.05;;
13419;SDS011;6781;58.440;15.470;2022-08-11T06:26:29;1.95;;;1.70;;
13419;SDS011;6781;58.440;15.470;2022-08-11T06:28:57;2.45;;;1.80;;
13419;SDS011;6781;58.440;15.470;2022-08-11T06:31:27;1.77;;;1.67;;
13419;SDS011;6781;58.440;15.470;2022-08-11T06:33:58;8.32;;;1.90;;
13419;SDS011;6781;58.440;15.470;2022-08-11T06:36:37;2.15;;;1.50;;
13419;SDS011;6781;58.440;15.470;2022-08-11T06:39:17;4.38;;;1.85;;
13419;SDS011;6781;58.440;15.470;2022-08-11T06:41:51;4.95;;;1.92;;
13419;SDS011;6781;58.440;15.470;2022-08-11T06:44:22;3.85;;;2.08;;
13419;SDS011;6781;58.440;15.470;2022-08-11T06:47:06;2.95;;;1.90;;
13419;SDS011;6781;58.440;15.470;2022-08-11T06:49:36;7.40;;;1.80;;
13419;SDS011;6781;58.440;15.470;2022-08-11T06:52:29;3.10;;;1.70;;
13419;SDS011;6781;58.440;15.470;2022-08-11T06:54:59;2.30;;;1.67;;
13419;SDS011;6781;58.440;15.470;2022-08-11T06:57:33;2.75;;;1.73;;
13419;SDS011;6781;58.440;15.470;2022-08-11T07:00:20;3.10;;;1.50;;
13419;SDS011;6781;58.440;15.470;2022-08-11T07:02:56;3.05;;;1.50;;
13419;SDS011;6781;58.440;15.470;2022-08-11T07:05:37;3.13;;;1.90;;
13419;SDS011;6781;58.440;15.470;2022-08-11T07:08:18;2.88;;;1.40;;
13419;SDS011;6781;58.440;15.470;2022-08-11T07:11:28;2.70;;;1.70;;
13419;SDS011;6781;58.440;15.470;2022-08-11T07:14:26;3.08;;;1.80;;
13419;SDS011;6781;58.440;15.470;2022-08-11T07:17:14;3.08;;;1.63;;
13419;SDS011;6781;58.440;15.470;2022-08-11T07:19:46;1.42;;;1.30;;
13419;SDS011;6781;58.440;15.470;2022-08-11T07:22:34;5.95;;;1.42;;
13419;SDS011;6781;58.440;15.470;2022-08-11T07:25:31;5.00;;;1.92;;
13419;SDS011;6781;58.440;15.470;2022-08-11T07:28:20;3.30;;;1.50;;
13419;SDS011;6781;58.440;15.470;2022-08-11T07:31:07;1.75;;;1.33;;
13419;SDS011;6781;58.440;15.470;2022-08-11T07:33:39;2.58;;;1.45;;
13419;SDS011;6781;58.440;15.470;2022-08-11T07:36:12;2.35;;;1.55;;
13419;SDS011;6781;58.440;15.470;2022-08-11T07:38:41;2.85;;;1.48;;
13419;SDS011;6781;58.440;15.470;2022-08-11T07:41:11;5.00;;;1.50;;
13419;SDS011;6781;58.440;15.470;2022-08-11T07:43:40;2.65;;;1.30;;
13419;SDS011;6781;58.440;15.470;2022-08-11T07:46:08;3.00;;;1.30;;
13419;SDS011;6781;58.440;15.470;2022-08-11T07:48:54;2.90;;;1.27;;
13419;SDS011;6781;58.440;15.470;2022-08-11T07:51:42;2.65;;;1.10;;
13419;SDS011;6781;58.440;15.470;2022-08-11T07:54:27;3.15;;;1.48;;
13419;SDS011;6781;58.440;15.470;2022-08-11T07:56:55;3.28;;;1.50;;
13419;SDS011;6781;58.440;15.470;2022-08-11T07:59:24;1.55;;;1.30;;
13419;SDS011;6781;58.440;15.470;2022-08-11T08:02:10;2.35;;;1.35;;
13419;SDS011;6781;58.440;15.470;2022-08-11T08:04:56;2.13;;;1.10;;
13419;SDS011;6781;58.440;15.470;2022-08-11T08:07:43;3.60;;;1.17;;
13419;SDS011;6781;58.440;15.470;2022-08-11T08:10:27;3.05;;;1.17;;
13419;SDS011;6781;58.440;15.470;2022-08-11T08:13:12;2.45;;;1.23;;
13419;SDS011;6781;58.440;15.470;2022-08-11T08:15:58;2.13;;;1.00;;
13419;SDS011;6781;58.440;15.470;2022-08-11T08:18:43;2.08;;;1.23;;
13419;SDS011;6781;58.440;15.470;2022-08-11T08:21:11;3.08;;;1.00;;
13419;SDS011;6781;58.440;15.470;2022-08-11T08:23:41;1.75;;;1.10;;
13419;SDS011;6781;58.440;15.470;2022-08-11T08:26:11;2.08;;;1.25;;
13419;SDS011;6781;58.440;15.470;2022-08-11T08:28:53;2.40;;;0.95;;
13419;SDS011;6781;58.440;15.470;2022-08-11T08:31:41;1.70;;;1.30;;
13419;SDS011;6781;58.440;15.470;2022-08-11T08:34:08;1.00;;;0.90;;
13419;SDS011;6781;58.440;15.470;2022-08-11T08:36:35;3.13;;;1.10;;
13419;SDS011;6781;58.440;15.470;2022-08-11T08:39:06;2.10;;;1.20;;
13419;SDS011;6781;58.440;15.470;2022-08-11T08:41:33;4.55;;;1.20;;
13419;SDS011;6781;58.440;15.470;2022-08-11T08:44:06;1.95;;;1.10;;
13419;SDS011;6781;58.440;15.470;2022-08-11T08:46:35;3.00;;;1.20;;
13419;SDS011;6781;58.440;15.470;2022-08-11T08:49:06;2.90;;;1.27;;
13419;SDS011;6781;58.440;15.470;2022-08-11T08:51:36;1.60;;;1.30;;
13419;SDS011;6781;58.440;15.470;2022-08-11T08:54:08;2.33;;;1.10;;
13419;SDS011;6781;58.440;15.470;2022-08-11T08:56:38;4.93;;;1.00;;
13419;SDS011;6781;58.440;15.470;2022-08-11T08:59:06;1.67;;;0.90;;
13419;SDS011;6781;58.440;15.470;2022-08-11T09:01:35;4.50;;;1.20;;
13419;SDS011;6781;58.440;15.470;2022-08-11T09:04:06;2.97;;;0.95;;
13419;SDS011;6781;58.440;15.470;2022-08-11T09:06:35;1.67;;;1.17;;
13419;SDS011;6781;58.440;15.470;2022-08-11T09:09:05;2.47;;;1.00;;
13419;SDS011;6781;58.440;15.470;2022-08-11T09:11:34;2.25;;;1.20;;
13419;SDS011;6781;58.440;15.470;2022-08-11T09:14:19;2.30;;;1.08;;
13419;SDS011;6781;58.440;15.470;2022-08-11T09:16:49;3.25;;;1.80;;
13419;SDS011;6781;58.440;15.470;2022-08-11T09:19:18;2.45;;;1.10;;
13419;SDS011;6781;58.440;15.470;2022-08-11T09:21:49;1.85;;;1.10;;
13419;SDS011;6781;58.440;15.470;2022-08-11T09:24:38;2.00;;;1.15;;
13419;SDS011;6781;58.440;15.470;2022-08-11T09:27:24;2.03;;;1.17;;
13419;SDS011;6781;58.440;15.470;2022-08-11T09:29:52;2.70;;;1.35;;
13419;SDS011;6781;58.440;15.470;2022-08-11T09:32:20;1.85;;;1.55;;
13419;SDS011;6781;58.440;15.470;2022-08-11T09:34:48;2.75;;;1.70;;
13419;SDS011;6781;58.440;15.470;2022-08-11T09:37:18;4.38;;;1.50;;
13419;SDS011;6781;58.440;15.470;2022-08-11T09:40:06;2.70;;;1.65;;
13419;SDS011;6781;58.440;15.470;2022-08-11T09:42:55;3.83;;;1.52;;
13419;SDS011;6781;58.440;15.470;2022-08-11T09:45:40;2.13;;;1.75;;
13419;SDS011;6781;58.440;15.470;2022-08-11T09:48:15;2.33;;;1.45;;
13419;SDS011;6781;58.440;15.470;2022-08-11T09:50:44;4.28;;;1.42;;
13419;SDS011;6781;58.440;15.470;2022-08-11T09:53:13;6.63;;;1.38;;
13419;SDS011;6781;58.440;15.470;2022-08-11T09:55:47;3.70;;;1.33;;
13419;SDS011;6781;58.440;15.470;2022-08-11T09:58:15;3.90;;;1.73;;
13419;SDS011;6781;58.440;15.470;2022-08-11T10:00:42;2.60;;;1.58;;
13419;SDS011;6781;58.440;15.470;2022-08-11T10:03:15;2.08;;;1.35;;
13419;SDS011;6781;58.440;15.470;2022-08-11T10:05:45;1.65;;;1.25;;
13419;SDS011;6781;58.440;15.470;2022-08-11T10:08:31;5.07;;;1.70;;
13419;SDS011;6781;58.440;15.470;2022-08-11T10:11:04;1.92;;;1.38;;
13419;SDS011;6781;58.440;15.470;2022-08-11T10:13:36;2.65;;;1.67;;
13419;SDS011;6781;58.440;15.470;2022-08-11T10:16:22;2.40;;;1.40;;
13419;SDS011;6781;58.440;15.470;2022-08-11T10:18:52;1.50;;;1.08;;
13419;SDS011;6781;58.440;15.470;2022-08-11T10:21:23;1.75;;;1.08;;
13419;SDS011;6781;58.440;15.470;2022-08-11T10:23:53;2.28;;;1.65;;
13419;SDS011;6781;58.440;15.470;2022-08-11T10:26:44;1.60;;;1.50;;
13419;SDS011;6781;58.440;15.470;2022-08-11T10:29:19;1.30;;;1.20;;
13419;SDS011;6781;58.440;15.470;2022-08-11T10:32:04;2.42;;;1.27;;
13419;SDS011;6781;58.440;15.470;2022-08-11T10:34:51;1.35;;;1.13;;
13419;SDS011;6781;58.440;15.470;2022-08-11T10:37:19;1.40;;;1.30;;
13419;SDS011;6781;58.440;15.470;2022-08-11T10:39:48;4.30;;;1.60;;
13419;SDS011;6781;58.440;15.470;2022-08-11T10:42:17;3.75;;;1.80;;
13419;SDS011;6781;58.440;15.470;2022-08-11T10:45:03;2.22;;;2.03;;
13419;SDS011;6781;58.440;15.470;2022-08-11T10:47:53;4.55;;;4.15;;
13419;SDS011;6781;58.440;15.470;2022-08-11T10:50:21;5.90;;;4.45;;
13419;SDS011;6781;58.440;15.470;2022-08-11T10:53:06;4.70;;;4.13;;
13419;SDS011;6781;58.440;15.470;2022-08-11T10:55:51;4.63;;;4.18;;
13419;SDS011;6781;58.440;15.470;2022-08-11T10:58:38;5.55;;;4.40;;
13419;SDS011;6781;58.440;15.470;2022-08-11T11:01:12;4.47;;;3.80;;
13419;SDS011;6781;58.440;15.470;2022-08-11T11:03:41;6.85;;;3.10;;
13419;SDS011;6781;58.440;15.470;2022-08-11T11:06:16;4.30;;;1.95;;
13419;SDS011;6781;58.440;15.470;2022-08-11T11:08:50;2.10;;;1.73;;
13419;SDS011;6781;58.440;15.470;2022-08-11T11:11:23;1.25;;;1.15;;
13419;SDS011;6781;58.440;15.470;2022-08-11T11:14:15;3.05;;;1.13;;
13419;SDS011;6781;58.440;15.470;2022-08-11T11:17:02;2.85;;;1.30;;
13419;SDS011;6781;58.440;15.470;2022-08-11T11:19:48;1.67;;;0.80;;
13419;SDS011;6781;58.440;15.470;2022-08-11T11:22:21;1.15;;;1.05;;
13419;SDS011;6781;58.440;15.470;2022-08-11T11:25:08;2.15;;;0.90;;
13419;SDS011;6781;58.440;15.470;2022-08-11T11:27:48;1.77;;;0.90;;
13419;SDS011;6781;58.440;15.470;2022-08-11T11:30:24;1.27;;;0.80;;
13419;SDS011;6781;58.440;15.470;2022-08-11T11:33:01;1.83;;;0.80;;
13419;SDS011;6781;58.440;15.470;2022-08-11T11:35:35;1.33;;;0.80;;
13419;SDS011;6781;58.440;15.470;2022-08-11T11:38:11;0.70;;;0.70;;
13419;SDS011;6781;58.440;15.470;2022-08-11T11:40:38;1.40;;;0.90;;
13419;SDS011;6781;58.440;15.470;2022-08-11T11:43:06;0.98;;;0.80;;
13419;SDS011;6781;58.440;15.470;2022-08-11T11:45:34;2.85;;;0.98;;
13419;SDS011;6781;58.440;15.470;2022-08-11T11:48:06;0.85;;;0.85;;
13419;SDS011;6781;58.440;15.470;2022-08-11T11:50:35;3.08;;;0.80;;
13419;SDS011;6781;58.440;15.470;2022-08-11T11:53:05;0.70;;;0.70;;
13419;SDS011;6781;58.440;15.470;2022-08-11T11:55:33;1.48;;;0.77;;
13419;SDS011;6781;58.440;15.470;2022-08-11T11:58:02;0.93;;;0.90;;
13419;SDS011;6781;58.440;15.470;2022-08-11T12:00:49;2.60;;;0.75;;
13419;SDS011;6781;58.440;15.470;2022-08-11T12:03:34;1.30;;;0.52;;
13419;SDS011;6781;58.440;15.470;2022-08-11T12:06:02;1.90;;;0.90;;
13419;SDS011;6781;58.440;15.470;2022-08-11T12:08:32;3.15;;;1.00;;
13419;SDS011;6781;58.440;15.470;2022-08-11T12:11:00;1.92;;;0.90;;
13419;SDS011;6781;58.440;15.470;2022-08-11T12:13:47;4.20;;;0.73;;
13419;SDS011;6781;58.440;15.470;2022-08-11T12:16:18;2.53;;;0.70;;
13419;SDS011;6781;58.440;15.470;2022-08-11T12:18:48;3.28;;;0.75;;
13419;SDS011;6781;58.440;15.470;2022-08-11T12:21:17;2.45;;;0.80;;
13419;SDS011;6781;58.440;15.470;2022-08-11T12:23:45;0.60;;;0.60;;
13419;SDS011;6781;58.440;15.470;2022-08-11T12:26:31;0.88;;;0.85;;
13419;SDS011;6781;58.440;15.470;2022-08-11T12:29:18;1.00;;;0.73;;
13419;SDS011;6781;58.440;15.470;2022-08-11T12:31:52;1.13;;;0.75;;
13419;SDS011;6781;58.440;15.470;2022-08-11T12:34:22;2.10;;;0.82;;
13419;SDS011;6781;58.440;15.470;2022-08-11T12:36:54;2.72;;;0.88;;
13419;SDS011;6781;58.440;15.470;2022-08-11T12:39:24;1.00;;;0.70;;
13419;SDS011;6781;58.440;15.470;2022-08-11T12:42:06;1.25;;;0.70;;
13419;SDS011;6781;58.440;15.470;2022-08-11T12:44:51;1.48;;;0.88;;
13419;SDS011;6781;58.440;15.470;2022-08-11T12:47:40;2.00;;;0.70;;
13419;SDS011;6781;58.440;15.470;2022-08-11T12:50:25;2.20;;;0.75;;
13419;SDS011;6781;58.440;15.470;2022-08-11T12:53:10;2.08;;;0.95;;
13419;SDS011;6781;58.440;15.470;2022-08-11T12:55:41;1.38;;;1.00;;
13419;SDS011;6781;58.440;15.470;2022-08-11T12:58:26;2.15;;;0.98;;
13419;SDS011;6781;58.440;15.470;2022-08-11T13:00:54;3.00;;;1.00;;
13419;SDS011;6781;58.440;15.470;2022-08-11T13:03:41;1.45;;;1.00;;
13419;SDS011;6781;58.440;15.470;2022-08-11T13:06:25;1.38;;;0.93;;
13419;SDS011;6781;58.440;15.470;2022-08-11T13:08:52;3.42;;;0.90;;
13419;SDS011;6781;58.440;15.470;2022-08-11T13:11:23;3.53;;;0.90;;
13419;SDS011;6781;58.440;15.470;2022-08-11T13:14:08;4.05;;;0.90;;
13419;SDS011;6781;58.440;15.470;2022-08-11T13:16:35;3.15;;;0.70;;
13419;SDS011;6781;58.440;15.470;2022-08-11T13:19:18;0.73;;;0.73;;
13419;SDS011;6781;58.440;15.470;2022-08-11T13:21:46;2.03;;;0.90;;
13419;SDS011;6781;58.440;15.470;2022-08-11T13:24:14;0.75;;;0.75;;
13419;SDS011;6781;58.440;15.470;2022-08-11T13:26:42;2.97;;;0.90;;
13419;SDS011;6781;58.440;15.470;2022-08-11T13:29:10;2.17;;;0.90;;
13419;SDS011;6781;58.440;15.470;2022-08-11T13:31:39;2.47;;;0.90;;
13419;SDS011;6781;58.440;15.470;2022-08-11T13:34:07;4.22;;;0.98;;
13419;SDS011;6781;58.440;15.470;2022-08-11T13:36:36;1.88;;;0.90;;
13419;SDS011;6781;58.440;15.470;2022-08-11T13:39:04;2.80;;;1.13;;
13419;SDS011;6781;58.440;15.470;2022-08-11T13:41:32;2.30;;;0.95;;
13419;SDS011;6781;58.440;15.470;2022-08-11T13:44:05;4.00;;;0.73;;
13419;SDS011;6781;58.440;15.470;2022-08-11T13:46:36;2.75;;;1.40;;
13419;SDS011;6781;58.440;15.470;2022-08-11T13:49:07;1.83;;;1.67;;
13419;SDS011;6781;58.440;15.470;2022-08-11T13:51:34;2.65;;;1.77;;
13419;SDS011;6781;58.440;15.470;2022-08-11T13:54:07;3.05;;;2.47;;
13419;SDS011;6781;58.440;15.470;2022-08-11T13:56:36;2.45;;;1.92;;
13419;SDS011;6781;58.440;15.470;2022-08-11T13:59:05;2.78;;;2.58;;
13419;SDS011;6781;58.440;15.470;2022-08-11T14:01:34;2.67;;;1.90;;
13419;SDS011;6781;58.440;15.470;2022-08-11T14:04:07;4.90;;;2.15;;
13419;SDS011;6781;58.440;15.470;2022-08-11T14:06:40;2.10;;;1.95;;
13419;SDS011;6781;58.440;15.470;2022-08-11T14:09:10;2.72;;;2.22;;
13419;SDS011;6781;58.440;15.470;2022-08-11T14:11:39;4.05;;;1.23;;
13419;SDS011;6781;58.440;15.470;2022-08-11T14:14:27;2.03;;;1.10;;
13419;SDS011;6781;58.440;15.470;2022-08-11T14:17:00;1.85;;;1.00;;
13419;SDS011;6781;58.440;15.470;2022-08-11T14:19:31;2.05;;;0.82;;
13419;SDS011;6781;58.440;15.470;2022-08-11T14:22:06;1.50;;;1.35;;
13419;SDS011;6781;58.440;15.470;2022-08-11T14:24:42;2.95;;;0.98;;
13419;SDS011;6781;58.440;15.470;2022-08-11T14:27:13;4.70;;;0.88;;
13419;SDS011;6781;58.440;15.470;2022-08-11T14:29:42;2.25;;;0.73;;
13419;SDS011;6781;58.440;15.470;2022-08-11T14:32:13;2.78;;;0.85;;
13419;SDS011;6781;58.440;15.470;2022-08-11T14:34:45;7.43;;;1.00;;
13419;SDS011;6781;58.440;15.470;2022-08-11T14:37:17;2.75;;;0.82;;
13419;SDS011;6781;58.440;15.470;2022-08-11T14:39:53;1.15;;;1.00;;
13419;SDS011;6781;58.440;15.470;2022-08-11T14:42:22;1.35;;;0.90;;
13419;SDS011;6781;58.440;15.470;2022-08-11T14:45:08;3.55;;;0.90;;
13419;SDS011;6781;58.440;15.470;2022-08-11T14:47:55;2.90;;;0.75;;
13419;SDS011;6781;58.440;15.470;2022-08-11T14:50:45;1.05;;;0.88;;
13419;SDS011;6781;58.440;15.470;2022-08-11T14:53:30;2.00;;;0.60;;
13419;SDS011;6781;58.440;15.470;2022-08-11T14:55:58;2.42;;;0.77;;
13419;SDS011;6781;58.440;15.470;2022-08-11T14:58:43;0.98;;;0.60;;
13419;SDS011;6781;58.440;15.470;2022-08-11T15:01:10;3.58;;;0.68;;
13419;SDS011;6781;58.440;15.470;2022-08-11T15:03:57;0.93;;;0.70;;
13419;SDS011;6781;58.440;15.470;2022-08-11T15:06:25;2.50;;;1.00;;
13419;SDS011;6781;58.440;15.470;2022-08-11T15:08:54;4.25;;;1.02;;
13419;SDS011;6781;58.440;15.470;2022-08-11T15:11:22;1.20;;;0.90;;
13419;SDS011;6781;58.440;15.470;2022-08-11T15:14:08;2.05;;;0.80;;
13419;SDS011;6781;58.440;15.470;2022-08-11T15:16:59;2.10;;;0.90;;
13419;SDS011;6781;58.440;15.470;2022-08-11T15:19:32;1.00;;;0.90;;
13419;SDS011;6781;58.440;15.470;2022-08-11T15:22:00;0.73;;;0.73;;
13419;SDS011;6781;58.440;15.470;2022-08-11T15:24:46;2.00;;;0.77;;
13419;SDS011;6781;58.440;15.470;2022-08-11T15:27:19;2.17;;;0.80;;
13419;SDS011;6781;58.440;15.470;2022-08-11T15:30:05;0.60;;;0.60;;
13419;SDS011;6781;58.440;15.470;2022-08-11T15:32:50;2.22;;;0.90;;
13419;SDS011;6781;58.440;15.470;2022-08-11T15:35:38;2.90;;;0.90;;
13419;SDS011;6781;58.440;15.470;2022-08-11T15:38:23;0.75;;;0.70;;
13419;SDS011;6781;58.440;15.470;2022-08-11T15:40:54;2.60;;;0.90;;
13419;SDS011;6781;58.440;15.470;2022-08-11T15:43:44;1.73;;;0.50;;
13419;SDS011;6781;58.440;15.470;2022-08-11T15:46:34;1.92;;;0.75;;
13419;SDS011;6781;58.440;15.470;2022-08-11T15:49:07;1.08;;;0.90;;
13419;SDS011;6781;58.440;15.470;2022-08-11T15:51:44;2.28;;;0.88;;
13419;SDS011;6781;58.440;15.470;2022-08-11T15:54:15;0.70;;;0.70;;
13419;SDS011;6781;58.440;15.470;2022-08-11T15:56:47;0.60;;;0.60;;
13419;SDS011;6781;58.440;15.470;2022-08-11T15:59:22;2.30;;;0.80;;
13419;SDS011;6781;58.440;15.470;2022-08-11T16:02:08;4.05;;;0.80;;
13419;SDS011;6781;58.440;15.470;2022-08-11T16:04:56;1.60;;;0.80;;
13419;SDS011;6781;58.440;15.470;2022-08-11T16:07:32;3.00;;;0.77;;
13419;SDS011;6781;58.440;15.470;2022-08-11T16:10:05;1.27;;;0.85;;
13419;SDS011;6781;58.440;15.470;2022-08-11T16:12:39;1.52;;;0.73;;
13419;SDS011;6781;58.440;15.470;2022-08-11T16:15:29;1.65;;;0.75;;
13419;SDS011;6781;58.440;15.470;2022-08-11T16:18:19;1.63;;;0.68;;
13419;SDS011;6781;58.440;15.470;2022-08-11T16:21:04;0.80;;;0.80;;
13419;SDS011;6781;58.440;15.470;2022-08-11T16:23:34;2.35;;;0.75;;
13419;SDS011;6781;58.440;15.470;2022-08-11T16:26:03;3.58;;;0.90;;
13419;SDS011;6781;58.440;15.470;2022-08-11T16:28:35;0.75;;;0.73;;
13419;SDS011;6781;58.440;15.470;2022-08-11T16:31:04;1.67;;;0.90;;
13419;SDS011;6781;58.440;15.470;2022-08-11T16:33:35;2.17;;;0.88;;
13419;SDS011;6781;58.440;15.470;2022-08-11T16:36:05;4.95;;;1.00;;
13419;SDS011;6781;58.440;15.470;2022-08-11T16:38:52;3.40;;;1.10;;
13419;SDS011;6781;58.440;15.470;2022-08-11T16:41:23;2.33;;;0.80;;
13419;SDS011;6781;58.440;15.470;2022-08-11T16:44:13;1.65;;;0.70;;
13419;SDS011;6781;58.440;15.470;2022-08-11T16:46:59;1.75;;;0.93;;
13419;SDS011;6781;58.440;15.470;2022-08-11T16:49:30;0.77;;;0.60;;
13419;SDS011;6781;58.440;15.470;2022-08-11T16:52:03;4.18;;;0.70;;
13419;SDS011;6781;58.440;15.470;2022-08-11T16:54:35;1.75;;;1.02;;
13419;SDS011;6781;58.440;15.470;2022-08-11T16:57:03;4.32;;;0.80;;
13419;SDS011;6781;58.440;15.470;2022-08-11T16:59:47;3.55;;;1.00;;
13419;SDS011;6781;58.440;15.470;2022-08-11T17:02:15;3.90;;;0.93;;
13419;SDS011;6781;58.440;15.470;2022-08-11T17:05:01;2.13;;;0.80;;
13419;SDS011;6781;58.440;15.470;2022-08-11T17:07:49;3.42;;;0.98;;
13419;SDS011;6781;58.440;15.470;2022-08-11T17:10:37;1.42;;;0.60;;
13419;SDS011;6781;58.440;15.470;2022-08-11T17:13:40;2.28;;;1.10;;
13419;SDS011;6781;58.440;15.470;2022-08-11T17:16:15;3.08;;;0.90;;
13419;SDS011;6781;58.440;15.470;2022-08-11T17:18:50;2.55;;;1.35;;
13419;SDS011;6781;58.440;15.470;2022-08-11T17:21:35;1.63;;;0.95;;
13419;SDS011;6781;58.440;15.470;2022-08-11T17:24:20;1.13;;;0.80;;